Time;durP1;ratioP1;P1;durP2;ratioP2;P2;SDS_P1;SDS_P2;PMS_P1;PMS_P2;Temp;Humidity;BMP_temperature;BMP_pressure;BME280_temperature;BME280_humidity;BME280_pressure;Samples;Min_cycle;Max_cycle;Signal;HPM_P1;HPM_P2
2021/04/27 00:00:09;;;;;;;9.52;3.03;;;5.50;55.20;;;;;;5017882;28;20051;-88
2021/04/27 00:02:36;;;;;;;7.22;3.03;;;5.40;55.00;;;;;;5011282;28;20365;-86
2021/04/27 00:05:05;;;;;;;6.63;3.25;;;5.40;55.20;;;;;;5012902;28;20052;-86
2021/04/27 00:07:32;;;;;;;8.40;3.58;;;5.30;55.30;;;;;;5014710;28;20133;-86
2021/04/27 00:10:01;;;;;;;4.60;3.28;;;5.20;55.80;;;;;;5025277;28;20486;-87
2021/04/27 00:12:30;;;;;;;11.10;3.65;;;5.20;55.50;;;;;;5029673;28;20130;-87
2021/04/27 00:14:58;;;;;;;9.10;3.40;;;5.20;55.30;;;;;;5031100;28;20045;-87
2021/04/27 00:17:28;;;;;;;8.88;3.20;;;5.10;55.70;;;;;;5025010;28;20037;-88
2021/04/27 00:19:54;;;;;;;8.00;3.10;;;5.10;55.80;;;;;;5025042;28;20084;-88
2021/04/27 00:22:25;;;;;;;6.50;2.88;;;5.00;55.90;;;;;;5020226;28;20084;-87
2021/04/27 00:24:52;;;;;;;6.32;3.30;;;4.90;55.60;;;;;;5012482;28;20129;-86
2021/04/27 00:27:19;;;;;;;3.45;2.75;;;4.90;55.60;;;;;;5031209;28;20339;-87
2021/04/27 00:29:45;;;;;;;7.97;3.33;;;4.80;56.20;;;;;;5006537;28;20458;-87
2021/04/27 00:32:11;;;;;;;13.20;3.20;;;4.70;56.20;;;;;;5002700;28;20072;-88
2021/04/27 00:34:38;;;;;;;6.82;3.13;;;4.60;56.90;;;;;;5017514;28;20120;-88
2021/04/27 00:37:04;;;;;;;4.35;3.40;;;4.60;57.30;;;;;;5013472;28;20049;-86
2021/04/27 00:39:31;;;;;;;5.50;2.90;;;4.60;57.30;;;;;;5034608;28;20083;-86
2021/04/27 00:41:57;;;;;;;9.20;2.95;;;4.50;57.60;;;;;;5029566;28;20053;-87
2021/04/27 00:44:25;;;;;;;4.22;3.35;;;4.60;57.60;;;;;;5032188;28;20087;-88
2021/04/27 00:46:52;;;;;;;5.95;3.40;;;4.50;57.50;;;;;;5028872;28;20053;-87
2021/04/27 00:49:18;;;;;;;6.47;3.00;;;4.50;57.80;;;;;;4998565;28;20065;-88
2021/04/27 00:51:45;;;;;;;8.77;3.08;;;4.50;58.20;;;;;;5016026;28;20379;-87
2021/04/27 00:54:12;;;;;;;10.20;3.00;;;4.40;58.20;;;;;;5032782;28;20045;-88
2021/04/27 00:56:38;;;;;;;6.00;2.92;;;4.50;58.30;;;;;;5008765;28;20454;-87
2021/04/27 00:59:05;;;;;;;3.83;2.78;;;4.50;58.20;;;;;;5041472;28;20045;-88
2021/04/27 01:01:32;;;;;;;7.10;3.10;;;4.50;58.10;;;;;;5016681;28;20069;-87
2021/04/27 01:03:59;;;;;;;4.57;3.30;;;4.40;58.70;;;;;;5016393;28;20045;-87
2021/04/27 01:06:28;;;;;;;3.80;2.90;;;4.30;58.90;;;;;;4996836;28;20144;-87
2021/04/27 01:09:03;;;;;;;10.52;3.28;;;4.30;59.00;;;;;;5015085;28;20153;-86
2021/04/27 01:11:43;;;;;;;5.30;3.25;;;4.20;59.20;;;;;;5015555;28;20136;-88
2021/04/27 01:14:21;;;;;;;13.05;3.15;;;4.30;59.10;;;;;;4997650;28;20468;-87
2021/04/27 01:17:10;;;;;;;3.22;2.92;;;4.20;59.50;;;;;;4998195;28;20054;-87
2021/04/27 01:20:01;;;;;;;8.38;3.70;;;4.10;59.90;;;;;;5010690;28;20497;-86
2021/04/27 01:22:57;;;;;;;8.65;3.17;;;4.00;59.90;;;;;;5009521;28;20101;-87
2021/04/27 01:25:33;;;;;;;5.40;3.20;;;4.00;60.50;;;;;;5018593;28;20096;-88
2021/04/27 01:28:01;;;;;;;7.10;2.97;;;4.00;60.20;;;;;;5015408;28;20077;-86
2021/04/27 01:30:29;;;;;;;5.05;3.30;;;3.90;60.60;;;;;;4998428;28;20082;-88
2021/04/27 01:32:56;;;;;;;7.20;3.15;;;4.00;60.70;;;;;;5013361;28;20098;-87
2021/04/27 01:35:26;;;;;;;4.93;3.10;;;4.00;60.60;;;;;;4993940;28;20125;-88
2021/04/27 01:37:53;;;;;;;3.90;3.35;;;4.00;60.40;;;;;;5014589;28;20078;-88
2021/04/27 01:40:22;;;;;;;10.75;3.38;;;3.90;60.50;;;;;;4996781;28;20084;-87
2021/04/27 01:42:51;;;;;;;9.33;3.70;;;3.80;60.40;;;;;;4997195;28;20042;-87
2021/04/27 01:45:19;;;;;;;9.27;3.08;;;3.70;60.70;;;;;;5018292;28;20081;-86
2021/04/27 01:47:45;;;;;;;8.82;3.85;;;3.70;61.40;;;;;;4997774;28;20445;-87
2021/04/27 01:50:12;;;;;;;10.32;3.33;;;3.60;61.90;;;;;;4997279;28;20154;-88
2021/04/27 01:52:38;;;;;;;4.80;3.10;;;3.60;62.40;;;;;;5014067;28;20049;-88
2021/04/27 01:55:06;;;;;;;6.43;2.90;;;3.50;62.70;;;;;;4992911;28;20125;-87
2021/04/27 01:57:33;;;;;;;6.55;3.13;;;3.40;62.40;;;;;;4997092;28;20045;-88
2021/04/27 02:00:04;;;;;;;6.88;2.95;;;3.40;62.50;;;;;;4997478;28;20083;-88
2021/04/27 02:02:33;;;;;;;6.22;3.38;;;3.30;63.50;;;;;;5008597;28;20107;-88
2021/04/27 02:04:59;;;;;;;4.32;2.83;;;3.10;64.40;;;;;;5016984;28;20111;-89
2021/04/27 02:07:25;;;;;;;4.60;3.05;;;3.00;65.60;;;;;;5030014;28;20521;-90
2021/04/27 02:09:54;;;;;;;6.82;3.00;;;3.00;65.60;;;;;;5014471;28;20045;-88
2021/04/27 02:12:20;;;;;;;6.53;3.53;;;2.90;66.70;;;;;;5022506;28;20125;-89
2021/04/27 02:14:47;;;;;;;7.70;3.55;;;3.00;65.90;;;;;;5025757;28;20068;-87
2021/04/27 02:17:31;;;;;;;5.88;2.95;;;3.00;65.40;;;;;;5013202;28;20041;-87
2021/04/27 02:19:59;;;;;;;8.55;3.50;;;3.00;65.70;;;;;;5028980;28;20053;-87
2021/04/27 02:22:29;;;;;;;6.07;3.53;;;3.00;65.50;;;;;;5016640;28;20064;-88
2021/04/27 02:24:59;;;;;;;6.25;3.13;;;3.00;65.10;;;;;;5032569;28;20068;-87
2021/04/27 02:27:30;;;;;;;8.85;3.35;;;2.90;65.30;;;;;;5042086;28;20058;-87
2021/04/27 02:29:58;;;;;;;7.10;3.40;;;2.80;65.70;;;;;;5024504;28;20331;-88
2021/04/27 02:32:27;;;;;;;6.28;3.00;;;2.70;66.90;;;;;;5015908;28;20058;-88
2021/04/27 02:34:53;;;;;;;7.07;3.80;;;2.70;66.90;;;;;;5015056;28;20057;-88
2021/04/27 02:37:22;;;;;;;5.80;3.35;;;2.70;67.10;;;;;;5011315;28;20081;-87
2021/04/27 02:39:54;;;;;;;6.03;3.40;;;2.60;67.20;;;;;;5032935;28;20057;-88
2021/04/27 02:42:21;;;;;;;6.13;3.75;;;2.60;67.60;;;;;;4980227;28;20133;-88
2021/04/27 02:44:47;;;;;;;4.65;3.25;;;2.60;68.10;;;;;;5026261;28;20149;-87
2021/04/27 02:47:16;;;;;;;6.55;2.95;;;2.60;68.50;;;;;;5014032;28;20072;-87
2021/04/27 02:49:42;;;;;;;5.63;3.10;;;2.60;69.40;;;;;;5015106;28;20048;-87
2021/04/27 02:52:09;;;;;;;3.67;3.17;;;2.50;70.40;;;;;;5028626;28;20358;-88
2021/04/27 02:54:36;;;;;;;5.13;3.47;;;2.40;70.10;;;;;;5030723;28;20057;-86
2021/04/27 02:57:02;;;;;;;6.07;3.70;;;2.40;71.00;;;;;;5032416;28;20431;-88
2021/04/27 02:59:29;;;;;;;6.35;3.58;;;2.40;71.80;;;;;;5021056;28;20053;-88
2021/04/27 03:01:55;;;;;;;10.90;4.35;;;2.40;72.00;;;;;;5021355;28;20068;-87
2021/04/27 03:04:22;;;;;;;6.03;4.15;;;2.40;72.80;;;;;;5014168;28;20466;-87
2021/04/27 03:06:49;;;;;;;6.85;3.83;;;2.40;73.70;;;;;;5025164;28;20113;-87
2021/04/27 03:09:17;;;;;;;6.45;3.45;;;2.50;74.30;;;;;;5024239;28;20081;-87
2021/04/27 03:11:44;;;;;;;7.38;3.65;;;2.60;74.90;;;;;;5028247;28;20136;-87
2021/04/27 03:14:11;;;;;;;6.57;3.28;;;2.60;74.60;;;;;;5010871;28;20073;-87
2021/04/27 03:16:37;;;;;;;8.10;4.18;;;2.60;73.90;;;;;;5014854;28;20136;-86
2021/04/27 03:19:04;;;;;;;8.38;3.85;;;2.50;73.80;;;;;;5014619;28;20386;-86
2021/04/27 03:21:31;;;;;;;8.75;3.40;;;2.50;74.10;;;;;;5026228;28;20482;-86
2021/04/27 03:23:57;;;;;;;8.98;3.78;;;2.40;74.40;;;;;;5031691;28;20155;-88
2021/04/27 03:26:24;;;;;;;4.32;3.13;;;2.40;75.80;;;;;;5014663;28;20057;-87
2021/04/27 03:28:50;;;;;;;4.72;3.15;;;2.30;76.70;;;;;;5009421;28;20423;-88
2021/04/27 03:31:18;;;;;;;9.68;3.78;;;2.30;78.10;;;;;;5010064;28;20042;-87
2021/04/27 03:33:45;;;;;;;5.45;3.63;;;2.20;80.20;;;;;;5009151;28;20060;-87
2021/04/27 03:36:12;;;;;;;6.03;3.35;;;2.10;83.10;;;;;;5024728;28;20128;-87
2021/04/27 03:38:38;;;;;;;5.93;4.13;;;2.00;85.10;;;;;;5007443;28;20534;-88
2021/04/27 03:41:04;;;;;;;5.85;3.60;;;2.00;90.00;;;;;;4990969;28;20049;-87
2021/04/27 03:43:31;;;;;;;4.45;3.65;;;1.90;91.10;;;;;;5020245;28;20203;-88
2021/04/27 03:45:58;;;;;;;9.23;3.90;;;1.90;91.90;;;;;;4990834;28;20056;-88
2021/04/27 03:48:27;;;;;;;6.35;3.97;;;1.80;93.70;;;;;;5007735;28;20371;-88
2021/04/27 03:50:59;;;;;;;8.35;4.50;;;1.80;96.10;;;;;;5029802;28;20045;-88
2021/04/27 03:53:28;;;;;;;8.05;3.95;;;1.80;96.40;;;;;;5029601;28;20054;-87
2021/04/27 03:55:55;;;;;;;11.70;7.18;;;1.80;95.40;;;;;;5007134;28;20084;-87
2021/04/27 03:58:22;;;;;;;20.45;10.75;;;1.80;95.90;;;;;;5018781;28;20095;-87
2021/04/27 04:00:48;;;;;;;10.13;5.00;;;1.70;98.10;;;;;;5008116;28;20104;-87
2021/04/27 04:03:15;;;;;;;10.30;5.22;;;1.70;99.90;;;;;;5006305;28;20049;-87
2021/04/27 04:05:43;;;;;;;6.88;4.13;;;1.70;99.90;;;;;;5005992;28;20371;-87
2021/04/27 04:08:10;;;;;;;7.10;4.38;;;1.80;99.90;;;;;;5019574;28;20104;-87
2021/04/27 04:10:36;;;;;;;4.15;3.63;;;1.80;99.90;;;;;;5014350;28;20201;-88
2021/04/27 04:13:03;;;;;;;6.57;4.30;;;1.80;99.90;;;;;;5025992;28;20136;-88
2021/04/27 04:15:32;;;;;;;5.75;4.03;;;1.70;99.90;;;;;;5010663;28;20451;-86
2021/04/27 04:17:59;;;;;;;9.40;4.60;;;1.80;99.90;;;;;;5024164;28;20128;-87
2021/04/27 04:20:25;;;;;;;8.23;4.00;;;1.80;99.90;;;;;;5028857;28;20336;-87
2021/04/27 04:22:53;;;;;;;7.70;4.38;;;1.80;99.90;;;;;;5033560;28;20057;-89
2021/04/27 04:25:20;;;;;;;7.63;4.30;;;1.70;99.90;;;;;;5043174;28;20136;-87
2021/04/27 04:27:49;;;;;;;6.53;3.85;;;1.70;99.90;;;;;;5024556;28;20068;-87
2021/04/27 04:30:21;;;;;;;11.23;4.13;;;1.70;99.90;;;;;;5029788;28;20087;-86
2021/04/27 04:32:52;;;;;;;6.38;4.25;;;1.70;99.90;;;;;;5013401;28;20050;-84
2021/04/27 04:35:21;;;;;;;5.25;3.72;;;1.70;99.90;;;;;;5032725;28;20041;-83
2021/04/27 04:37:50;;;;;;;6.68;3.72;;;1.70;99.90;;;;;;5035613;28;20060;-83
2021/04/27 04:40:18;;;;;;;4.65;3.70;;;1.70;99.90;;;;;;5035727;28;20400;-82
2021/04/27 04:42:45;;;;;;;6.95;4.18;;;1.70;99.90;;;;;;5035890;28;20431;-82
2021/04/27 04:45:13;;;;;;;5.88;4.47;;;1.70;99.90;;;;;;5031339;28;20080;-82
2021/04/27 04:47:41;;;;;;;11.48;4.45;;;1.70;99.90;;;;;;5001924;28;20426;-82
2021/04/27 04:50:12;;;;;;;9.43;4.25;;;1.80;99.90;;;;;;5027690;28;20379;-82
2021/04/27 04:52:39;;;;;;;9.25;4.28;;;1.80;99.90;;;;;;5017583;28;20037;-83
2021/04/27 04:55:09;;;;;;;18.73;4.28;;;1.90;99.90;;;;;;5031171;28;20489;-83
2021/04/27 04:57:36;;;;;;;5.13;3.72;;;2.00;99.90;;;;;;5009722;28;20038;-85
2021/04/27 05:00:09;;;;;;;5.43;4.10;;;2.10;99.90;;;;;;5031207;28;20084;-84
2021/04/27 05:02:38;;;;;;;6.30;4.10;;;2.20;99.90;;;;;;5034657;28;20060;-83
2021/04/27 05:05:06;;;;;;;7.20;4.30;;;2.20;99.90;;;;;;5008310;28;20132;-85
2021/04/27 05:07:42;;;;;;;4.82;3.78;;;2.20;99.90;;;;;;5031567;28;20132;-86
2021/04/27 05:10:14;;;;;;;9.02;4.30;;;2.30;99.90;;;;;;5015283;28;20441;-85
2021/04/27 05:12:43;;;;;;;7.25;4.38;;;2.40;99.90;;;;;;5010487;28;20144;-85
2021/04/27 05:15:10;;;;;;;11.98;4.75;;;2.40;99.90;;;;;;5017033;28;20156;-86
2021/04/27 05:17:39;;;;;;;9.52;4.57;;;2.50;99.90;;;;;;4998056;28;20455;-87
2021/04/27 05:20:06;;;;;;;5.38;3.78;;;2.60;99.90;;;;;;5007995;28;20104;-86
2021/04/27 05:22:36;;;;;;;7.68;4.28;;;2.80;99.90;;;;;;5034509;28;20410;-88
2021/04/27 05:25:04;;;;;;;15.93;6.57;;;2.90;99.90;;;;;;5033071;28;20051;-86
2021/04/27 05:27:34;;;;;;;11.98;6.43;;;3.00;99.90;;;;;;5015933;28;20121;-86
2021/04/27 05:30:02;;;;;;;11.85;6.10;;;3.10;99.90;;;;;;5030773;28;20046;-86
2021/04/27 05:32:32;;;;;;;9.10;5.43;;;3.20;99.90;;;;;;4998621;28;20081;-87
2021/04/27 05:34:58;;;;;;;10.85;5.20;;;3.40;99.90;;;;;;5012378;28;20050;-88
2021/04/27 05:37:34;;;;;;;9.88;4.60;;;3.50;99.90;;;;;;5008900;28;20382;-86
2021/04/27 05:40:01;;;;;;;8.85;5.53;;;3.60;99.50;;;;;;5011066;28;20466;-86
2021/04/27 05:42:34;;;;;;;13.55;7.22;;;3.80;96.10;;;;;;5003501;28;20113;-88
2021/04/27 05:45:01;;;;;;;19.50;7.40;;;3.90;95.60;;;;;;5011988;28;20511;-88
2021/04/27 05:47:40;;;;;;;14.73;6.78;;;4.00;96.30;;;;;;5032080;28;20050;-91
2021/04/27 05:50:07;;;;;;;12.35;5.90;;;4.10;93.50;;;;;;5028360;28;20079;-84
2021/04/27 05:52:37;;;;;;;10.00;5.93;;;4.30;92.30;;;;;;5031688;28;20080;-85
2021/04/27 05:55:04;;;;;;;9.30;5.18;;;4.60;91.40;;;;;;5016731;28;20466;-83
2021/04/27 05:57:35;;;;;;;10.50;5.60;;;4.80;90.70;;;;;;5015016;28;20518;-86
2021/04/27 06:00:05;;;;;;;8.50;4.32;;;4.90;90.10;;;;;;5033012;28;20528;-86
2021/04/27 06:02:32;;;;;;;10.07;4.70;;;5.10;87.10;;;;;;5025748;28;20149;-85
2021/04/27 06:04:58;;;;;;;7.63;4.60;;;5.20;82.50;;;;;;5030900;28;20045;-85
2021/04/27 06:07:31;;;;;;;7.15;4.25;;;5.50;82.50;;;;;;5014711;28;20069;-86
2021/04/27 06:09:57;;;;;;;8.43;3.97;;;5.70;80.80;;;;;;5019041;28;20151;-92
2021/04/27 06:12:37;;;;;;;10.70;4.38;;;5.90;78.10;;;;;;5020707;28;20069;-92
2021/04/27 06:15:04;;;;;;;6.80;4.25;;;6.10;75.70;;;;;;5013503;28;20446;-92
2021/04/27 06:17:34;;;;;;;12.15;6.18;;;6.10;76.00;;;;;;5026947;28;20041;-92
2021/04/27 06:20:07;;;;;;;14.40;4.95;;;6.40;78.90;;;;;;5016392;28;20057;-94
2021/04/27 06:22:36;;;;;;;10.07;4.78;;;6.50;76.90;;;;;;5016632;28;20088;-87
2021/04/27 06:25:06;;;;;;;11.00;4.78;;;6.70;78.40;;;;;;5015988;28;20133;-88
2021/04/27 06:27:33;;;;;;;12.73;4.85;;;7.00;76.60;;;;;;5017982;28;20088;-88
2021/04/27 06:30:00;;;;;;;8.80;4.45;;;7.10;72.80;;;;;;5024846;28;20060;-88
2021/04/27 06:32:27;;;;;;;8.68;4.63;;;7.40;72.10;;;;;;5038614;28;20478;-88
2021/04/27 06:34:54;;;;;;;10.55;5.00;;;7.60;70.40;;;;;;5016403;28;20057;-89
2021/04/27 06:37:24;;;;;;;10.05;5.25;;;7.70;69.70;;;;;;4999976;28;20046;-87
2021/04/27 06:39:52;;;;;;;9.77;4.57;;;7.80;69.40;;;;;;5014810;28;20052;-86
2021/04/27 06:42:22;;;;;;;6.65;4.72;;;7.80;68.90;;;;;;5016349;28;20059;-89
2021/04/27 06:44:49;;;;;;;10.93;5.47;;;7.80;68.80;;;;;;5033151;28;20140;-89
2021/04/27 06:47:15;;;;;;;10.02;4.88;;;7.90;70.10;;;;;;5033038;28;20050;-91
2021/04/27 06:49:47;;;;;;;12.77;4.88;;;8.20;70.60;;;;;;5015115;28;20152;-90
2021/04/27 06:52:18;;;;;;;12.80;4.93;;;8.20;67.30;;;;;;5029269;28;20140;-88
2021/04/27 06:54:44;;;;;;;12.85;6.28;;;8.40;67.90;;;;;;5015568;28;20519;-88
2021/04/27 06:57:12;;;;;;;11.25;5.25;;;8.80;67.00;;;;;;5015040;28;20071;-88
2021/04/27 06:59:40;;;;;;;14.80;4.90;;;9.40;64.50;;;;;;5006812;28;20528;-93
2021/04/27 07:02:12;;;;;;;8.38;5.70;;;10.00;62.90;;;;;;5017275;28;20187;-89
2021/04/27 07:04:41;;;;;;;8.43;4.90;;;10.20;61.00;;;;;;4999063;28;20081;-87
2021/04/27 07:07:08;;;;;;;9.90;5.20;;;10.40;57.90;;;;;;5033096;28;20095;-90
2021/04/27 07:09:36;;;;;;;9.20;5.38;;;10.80;59.60;;;;;;5030786;28;20049;-89
2021/04/27 07:12:03;;;;;;;10.75;4.60;;;11.00;58.80;;;;;;5015146;28;20458;-88
2021/04/27 07:14:30;;;;;;;7.50;4.68;;;11.10;58.50;;;;;;4998766;28;20132;-86
2021/04/27 07:16:57;;;;;;;7.05;4.78;;;11.10;58.70;;;;;;5015954;28;20049;-86
2021/04/27 07:19:35;;;;;;;7.43;4.30;;;11.40;56.80;;;;;;5023337;28;20049;-89
2021/04/27 07:22:06;;;;;;;8.25;4.30;;;12.10;55.30;;;;;;5039920;28;20383;-89
2021/04/27 07:24:57;;;;;;;9.73;4.95;;;12.20;54.00;;;;;;5019572;28;20055;-90
2021/04/27 07:27:37;;;;;;;13.63;4.57;;;12.70;52.70;;;;;;5033651;28;20055;-91
2021/04/27 07:30:05;;;;;;;12.80;4.50;;;12.90;51.60;;;;;;5015082;28;20425;-90
2021/04/27 07:32:38;;;;;;;15.50;5.07;;;13.00;52.70;;;;;;5015966;28;20087;-89
2021/04/27 07:35:07;;;;;;;8.93;4.97;;;13.20;52.00;;;;;;5016791;28;20351;-87
2021/04/27 07:37:36;;;;;;;8.45;4.82;;;12.90;50.90;;;;;;5028679;28;20418;-89
2021/04/27 07:40:06;;;;;;;11.73;5.28;;;13.30;53.30;;;;;;5014843;28;20045;-89
2021/04/27 07:42:33;;;;;;;11.48;5.38;;;13.50;49.30;;;;;;5015656;28;20430;-90
2021/04/27 07:44:59;;;;;;;11.38;5.20;;;13.40;49.30;;;;;;5032801;28;20065;-88
2021/04/27 07:47:26;;;;;;;12.20;5.75;;;12.90;51.10;;;;;;5033246;28;20119;-92
2021/04/27 07:49:53;;;;;;;9.20;5.32;;;12.50;51.20;;;;;;5032957;28;20111;-91
2021/04/27 07:52:44;;;;;;;10.52;5.72;;;12.50;51.80;;;;;;5030981;28;20045;-89
2021/04/27 07:55:12;;;;;;;10.05;5.68;;;12.90;52.40;;;;;;5023369;28;20058;-89
2021/04/27 07:57:38;;;;;;;12.18;6.43;;;13.40;51.00;;;;;;5013158;28;20140;-90
2021/04/27 08:00:08;;;;;;;15.25;5.72;;;13.30;50.30;;;;;;5032288;28;20076;-89
2021/04/27 08:02:36;;;;;;;9.77;5.68;;;13.60;49.30;;;;;;5032923;28;20068;-89
2021/04/27 08:05:04;;;;;;;11.68;6.25;;;13.80;50.20;;;;;;5023875;28;20042;-88
2021/04/27 08:07:31;;;;;;;12.98;6.50;;;14.10;51.50;;;;;;5033065;28;20041;-89
2021/04/27 08:09:57;;;;;;;12.60;5.78;;;14.20;48.40;;;;;;5031680;28;20042;-88
2021/04/27 08:12:24;;;;;;;19.63;6.68;;;14.30;48.80;;;;;;5014955;28;20049;-89
2021/04/27 08:14:51;;;;;;;10.38;5.93;;;14.10;47.90;;;;;;5032330;28;20119;-89
2021/04/27 08:17:19;;;;;;;9.63;5.82;;;14.40;50.30;;;;;;5032001;28;20419;-89
2021/04/27 08:19:47;;;;;;;11.13;5.88;;;15.20;47.10;;;;;;5014531;28;20045;-88
2021/04/27 08:22:14;;;;;;;9.98;5.60;;;15.60;44.60;;;;;;5027394;28;20049;-88
2021/04/27 08:24:46;;;;;;;10.65;6.47;;;15.60;45.60;;;;;;5015751;28;20050;-91
2021/04/27 08:27:43;;;;;;;11.05;6.13;;;15.10;45.10;;;;;;5016275;28;20053;-90
2021/04/27 08:30:33;;;;;;;9.50;6.25;;;15.50;46.70;;;;;;5015138;28;20128;-89
2021/04/27 08:33:02;;;;;;;8.27;5.30;;;15.70;44.60;;;;;;5030917;28;20037;-91
2021/04/27 08:35:45;;;;;;;12.25;5.68;;;16.00;44.30;;;;;;5016794;28;20053;-89
2021/04/27 08:38:11;;;;;;;11.38;6.22;;;16.90;43.20;;;;;;4986682;28;20049;-88
2021/04/27 08:40:43;;;;;;;12.18;6.93;;;17.10;43.60;;;;;;5030545;28;20536;-90
2021/04/27 08:43:09;;;;;;;11.80;5.90;;;17.40;41.90;;;;;;5007524;28;20064;-89
2021/04/27 08:45:38;;;;;;;8.07;6.00;;;17.30;42.30;;;;;;5014402;28;20084;-89
2021/04/27 08:51:53;;;;;;;9.32;5.28;;;18.70;38.60;;;;;;5028661;28;20052;-93
2021/04/27 08:54:36;;;;;;;11.10;6.03;;;18.50;39.30;;;;;;5041813;28;20127;-91
2021/04/27 08:57:12;;;;;;;10.80;5.80;;;19.10;38.20;;;;;;5028956;28;20147;-90
2021/04/27 08:59:51;;;;;;;11.13;5.72;;;19.60;36.70;;;;;;5033870;28;20051;-93
2021/04/27 09:02:31;;;;;;;10.93;6.10;;;19.00;37.10;;;;;;5016813;28;20117;-92
2021/04/27 09:04:58;;;;;;;11.52;6.43;;;19.00;38.40;;;;;;5032608;28;20053;-89
2021/04/27 09:07:42;;;;;;;10.27;5.40;;;18.70;39.10;;;;;;5016455;28;20142;-88
2021/04/27 09:11:15;;;;;;;7.60;6.13;;;18.80;39.50;;;;;;5015042;28;20072;-87
2021/04/27 09:13:45;;;;;;;9.25;6.00;;;19.70;37.90;;;;;;4954874;29;20126;-92
2021/04/27 09:16:12;;;;;;;9.57;6.20;;;19.60;35.20;;;;;;5036866;28;20049;-93
2021/04/27 09:18:40;;;;;;;9.77;5.72;;;19.90;37.30;;;;;;5021716;28;20053;-91
2021/04/27 09:21:29;;;;;;;11.07;6.32;;;19.40;36.40;;;;;;5026765;28;20057;-91
2021/04/27 09:24:10;;;;;;;9.68;6.25;;;19.10;36.30;;;;;;5021755;28;20076;-90
2021/04/27 09:26:52;;;;;;;10.02;6.72;;;18.70;37.70;;;;;;5016981;28;20054;-90
2021/04/27 09:29:38;;;;;;;11.35;6.10;;;18.70;36.80;;;;;;5025668;28;20081;-90
2021/04/27 09:32:37;;;;;;;8.80;5.78;;;18.30;35.50;;;;;;5044207;28;20431;-88
2021/04/27 09:35:22;;;;;;;10.43;5.82;;;18.80;35.00;;;;;;5034847;28;20455;-89
2021/04/27 09:38:41;;;;;;;10.52;6.88;;;19.20;34.50;;;;;;5034748;28;20076;-89
2021/04/27 09:41:12;;;;;;;14.20;6.75;;;18.70;35.60;;;;;;4974017;28;20369;-88
2021/04/27 09:43:47;;;;;;;11.55;6.65;;;18.80;36.40;;;;;;5031146;28;20049;-89
2021/04/27 09:46:17;;;;;;;11.90;6.28;;;18.10;35.70;;;;;;5022961;28;20052;-89
2021/04/27 09:49:02;;;;;;;8.10;5.63;;;17.90;36.70;;;;;;5036768;28;20172;-86
2021/04/27 09:51:36;;;;;;;22.13;9.82;;;18.50;36.90;;;;;;5017084;28;20336;-86
2021/04/27 09:54:35;;;;;;;10.10;6.43;;;18.50;38.00;;;;;;5019509;28;20051;-85
2021/04/27 09:57:01;;;;;;;19.45;7.30;;;18.70;34.30;;;;;;5018711;28;20057;-87
2021/04/27 09:59:42;;;;;;;17.88;8.50;;;19.40;34.40;;;;;;5020600;28;20063;-90
2021/04/27 10:02:09;;;;;;;15.75;6.97;;;19.30;35.70;;;;;;5031473;28;20069;-91
2021/04/27 10:04:38;;;;;;;8.88;6.68;;;18.90;36.40;;;;;;5030342;28;20049;-89
2021/04/27 10:07:07;;;;;;;14.57;6.95;;;18.70;35.90;;;;;;5019780;28;20053;-89
2021/04/27 10:09:36;;;;;;;11.68;7.00;;;19.40;34.40;;;;;;5031419;28;20041;-91
2021/04/27 10:12:07;;;;;;;9.60;6.53;;;19.50;35.10;;;;;;5045650;28;20052;-90
2021/04/27 10:14:34;;;;;;;10.85;6.55;;;19.00;35.10;;;;;;5041971;28;20128;-88
2021/04/27 10:17:04;;;;;;;12.23;7.32;;;19.00;36.10;;;;;;5038350;28;20124;-86
2021/04/27 10:19:40;;;;;;;14.95;6.95;;;19.30;36.60;;;;;;5017735;28;20053;-89
2021/04/27 10:22:06;;;;;;;13.95;8.00;;;19.60;33.80;;;;;;5017025;28;20121;-88
2021/04/27 10:24:37;;;;;;;10.05;6.40;;;19.60;34.70;;;;;;5034723;28;20132;-87
2021/04/27 10:27:04;;;;;;;11.90;7.20;;;19.70;35.00;;;;;;5015577;28;20478;-89
2021/04/27 10:29:36;;;;;;;10.85;7.05;;;20.70;32.70;;;;;;4998713;28;20430;-87
2021/04/27 10:32:12;;;;;;;11.73;7.15;;;21.00;33.20;;;;;;5017452;28;20053;-88
2021/04/27 10:34:59;;;;;;;11.95;7.53;;;19.90;34.60;;;;;;5016771;28;20045;-87
2021/04/27 10:37:56;;;;;;;12.23;7.28;;;19.60;34.60;;;;;;5017815;28;20171;-89
2021/04/27 10:40:44;;;;;;;10.48;7.45;;;19.80;34.80;;;;;;5032554;28;20075;-87
2021/04/27 10:43:51;;;;;;;10.35;7.30;;;20.70;35.90;;;;;;5033546;28;20125;-86
2021/04/27 10:46:17;;;;;;;13.98;7.85;;;21.50;33.70;;;;;;5011105;28;20124;-87
2021/04/27 10:48:45;;;;;;;10.20;6.55;;;21.50;33.40;;;;;;5016395;28;20103;-86
2021/04/27 10:51:39;;;;;;;9.88;7.20;;;22.10;33.70;;;;;;5018516;28;20064;-87
2021/04/27 10:54:16;;;;;;;12.07;7.78;;;21.80;32.60;;;;;;5015321;28;20041;-87
2021/04/27 10:56:53;;;;;;;14.35;6.90;;;22.10;32.30;;;;;;5015709;28;20083;-87
2021/04/27 10:59:55;;;;;;;12.90;6.60;;;22.40;30.60;;;;;;5015629;28;20084;-87
2021/04/27 11:03:07;;;;;;;9.15;6.88;;;22.00;31.00;;;;;;5016310;28;20057;-89
2021/04/27 11:05:48;;;;;;;12.88;6.53;;;22.40;29.40;;;;;;5011604;28;20056;-85
2021/04/27 11:08:14;;;;;;;11.82;7.65;;;22.20;31.20;;;;;;5016857;28;20103;-91
2021/04/27 11:10:45;;;;;;;12.15;7.47;;;22.30;31.10;;;;;;5014741;28;20065;-88
2021/04/27 11:13:13;;;;;;;11.05;7.28;;;22.00;30.50;;;;;;5017745;28;20064;-89
2021/04/27 11:15:43;;;;;;;9.60;7.45;;;21.50;30.30;;;;;;5017485;28;20053;-91
2021/04/27 11:18:38;;;;;;;10.43;6.93;;;21.60;29.80;;;;;;5015816;28;20076;-89
2021/04/27 11:21:12;;;;;;;9.00;6.15;;;21.90;30.70;;;;;;5000501;28;20472;-90
2021/04/27 11:23:56;;;;;;;8.73;6.40;;;22.50;29.80;;;;;;5016188;28;20107;-90
2021/04/27 11:26:53;;;;;;;13.20;7.35;;;21.70;30.00;;;;;;5015225;28;20045;-89
2021/04/27 11:30:12;;;;;;;12.30;7.22;;;21.70;28.70;;;;;;5031025;28;20068;-90
2021/04/27 11:32:45;;;;;;;11.60;7.38;;;21.80;30.10;;;;;;5037662;28;20041;-92
2021/04/27 11:35:37;;;;;;;11.27;7.72;;;22.10;29.50;;;;;;5037901;28;20042;-92
2021/04/27 11:39:08;;;;;;;13.50;7.88;;;21.50;30.40;;;;;;4986572;28;20047;-92
2021/04/27 11:42:09;;;;;;;13.75;7.95;;;21.70;32.30;;;;;;4899555;29;20100;-92
2021/04/27 11:44:50;;;;;;;11.63;7.82;;;22.50;28.00;;;;;;4906589;29;20061;-91
2021/04/27 11:47:45;;;;;;;12.45;8.15;;;23.00;28.00;;;;;;4898307;29;20089;-90
2021/04/27 11:50:49;;;;;;;;;;;;;;;;;;;;;
2021/04/27 11:54:12;;;;;;;;;;;;;;;;;;;;;
2021/04/27 11:57:04;;;;;;;11.52;7.70;;;21.50;29.80;;;;;;5009557;28;20078;-92
2021/04/27 12:00:39;;;;;;;12.05;6.90;;;22.70;30.00;;;;;;5005661;28;20038;-91
2021/04/27 12:03:51;;;;;;;8.70;6.97;;;23.80;28.10;;;;;;4979698;28;20124;-90
2021/04/27 12:06:19;;;;;;;10.65;7.40;;;24.40;28.10;;;;;;4986068;28;20061;-89
2021/04/27 12:09:02;;;;;;;13.43;7.90;;;23.90;27.00;;;;;;5002033;28;20073;-89
2021/04/27 12:11:52;;;;;;;10.77;7.88;;;24.30;27.10;;;;;;4995456;28;20042;-92
2021/04/27 12:14:34;;;;;;;11.98;7.88;;;24.30;27.20;;;;;;4999155;28;20049;-92
2021/04/27 12:17:00;;;;;;;11.50;7.47;;;24.30;27.00;;;;;;4993101;28;20479;-93
2021/04/27 12:20:51;;;;;;;8.75;6.95;;;24.40;26.70;;;;;;4928276;29;20058;-92
2021/04/27 12:24:08;;;;;;;14.68;8.05;;;25.00;27.50;;;;;;4963119;28;20345;-93
2021/04/27 12:27:36;;;;;;;12.35;7.82;;;24.20;26.20;;;;;;4947858;29;20066;-92
2021/04/27 12:31:10;;;;;;;;;;;;;;;;;;;;;
2021/04/27 12:34:05;;;;;;;14.63;8.10;;;24.10;26.80;;;;;;4952700;29;20050;-92
2021/04/27 12:37:04;;;;;;;11.70;7.30;;;23.90;27.40;;;;;;4961081;28;20044;-89
2021/04/27 12:39:47;;;;;;;10.25;7.72;;;24.40;26.60;;;;;;4917056;29;20052;-92
2021/04/27 12:42:49;;;;;;;10.07;7.55;;;24.70;27.20;;;;;;4912697;29;20060;-91
2021/04/27 12:45:16;;;;;;;10.85;8.43;;;24.10;26.40;;;;;;4920579;29;20123;-91
2021/04/27 12:48:07;;;;;;;14.50;7.97;;;23.60;27.20;;;;;;4912810;29;20079;-93
2021/04/27 12:50:57;;;;;;;;;;;;;;;;;;;;;
2021/04/27 12:53:45;;;;;;;17.65;7.88;;;23.50;26.50;;;;;;5000886;28;20054;-91
2021/04/27 12:56:38;;;;;;;14.27;8.35;;;23.40;27.10;;;;;;5006313;28;20050;-91
2021/04/27 12:59:19;;;;;;;16.30;7.75;;;24.00;26.50;;;;;;4991757;28;20432;-91
2021/04/27 13:01:57;;;;;;;8.93;7.65;;;24.10;25.00;;;;;;5013016;28;20098;-92
2021/04/27 13:04:39;;;;;;;10.73;7.63;;;23.60;25.90;;;;;;5015925;28;20086;-91
2021/04/27 13:10:44;;;;;;;10.88;7.40;;;23.90;26.40;;;;;;5029689;28;20052;-89
2021/04/27 13:13:15;;;;;;;8.73;6.78;;;23.60;25.80;;;;;;5049924;28;20049;-89
2021/04/27 13:15:43;;;;;;;8.95;7.10;;;23.40;26.50;;;;;;5036632;28;20076;-90
2021/04/27 13:18:10;;;;;;;9.55;6.60;;;23.60;26.80;;;;;;5038863;28;20057;-90
2021/04/27 13:20:40;;;;;;;11.30;7.00;;;24.30;25.30;;;;;;5037695;28;20042;-86
2021/04/27 13:23:12;;;;;;;12.13;6.88;;;24.10;24.60;;;;;;5033787;28;20467;-87
2021/04/27 13:25:46;;;;;;;11.52;6.75;;;24.60;25.30;;;;;;5013061;28;20501;-88
2021/04/27 13:28:40;;;;;;;10.60;6.80;;;24.40;25.30;;;;;;5020780;28;20046;-87
2021/04/27 13:31:07;;;;;;;11.43;6.60;;;24.90;24.40;;;;;;5029978;28;20107;-89
2021/04/27 13:33:42;;;;;;;10.50;6.55;;;24.30;24.10;;;;;;5033862;28;20041;-88
2021/04/27 13:36:13;;;;;;;15.73;6.85;;;23.60;25.20;;;;;;5033295;28;20041;-88